Time;durP1;ratioP1;P1;durP2;ratioP2;P2;SDS_P1;SDS_P2;PMS_P1;PMS_P2;Temp;Humidity;BMP_temperature;BMP_pressure;BME280_temperature;BME280_humidity;BME280_pressure;Samples;Min_cycle;Max_cycle;Signal;HPM_P1;HPM_P2
2022/01/06 00:04:09;;;;;;;1.20;0.40;;;5.50;87.60;;;;;;10944478;32;20349;-72
2022/01/06 00:10:13;;;;;;;0.35;0.35;;;5.60;87.60;;;;;;10944346;32;20053;-72
2022/01/06 00:28:57;;;;;;;0.40;0.40;;;5.40;87.30;;;;;;10932347;32;20055;-73
2022/01/06 00:34:59;;;;;;;1.08;0.47;;;5.30;86.80;;;;;;10943331;32;20053;-74
2022/01/06 00:41:01;;;;;;;0.45;0.30;;;5.10;87.00;;;;;;10943110;32;20031;-74
2022/01/06 00:47:03;;;;;;;0.28;0.22;;;5.00;86.90;;;;;;10942968;32;20014;-73
2022/01/06 00:53:06;;;;;;;0.30;0.30;;;4.90;87.10;;;;;;10942974;32;20027;-73
2022/01/06 00:59:08;;;;;;;0.45;0.43;;;4.90;87.10;;;;;;10929312;32;20018;-73
2022/01/06 01:05:10;;;;;;;0.40;0.40;;;4.90;87.30;;;;;;10942602;32;20010;-73
2022/01/06 01:11:12;;;;;;;0.80;0.57;;;4.90;87.30;;;;;;10942124;32;20053;-72
2022/01/06 01:17:15;;;;;;;1.35;0.65;;;5.00;87.40;;;;;;10942192;32;20019;-72
2022/01/06 01:23:20;;;;;;;1.23;0.70;;;5.00;87.40;;;;;;10942087;32;20054;-72
2022/01/06 01:29:22;;;;;;;0.32;0.32;;;5.10;87.50;;;;;;10941933;32;20398;-73
2022/01/06 01:35:31;;;;;;;0.62;0.37;;;5.20;87.60;;;;;;10941828;32;20023;-72
2022/01/06 01:41:33;;;;;;;0.65;0.37;;;5.30;87.60;;;;;;10570526;32;12110704;-72
2022/01/06 01:47:44;;;;;;;0.35;0.30;;;5.30;87.30;;;;;;10901952;27;20082;-72
2022/01/06 01:53:46;;;;;;;1.05;0.77;;;5.20;87.20;;;;;;10900453;32;20042;-73
2022/01/06 01:59:48;;;;;;;1.98;0.93;;;5.20;87.20;;;;;;10901687;32;20031;-73
2022/01/06 02:05:51;;;;;;;0.40;0.40;;;5.20;87.30;;;;;;10907481;32;20030;-73
2022/01/06 02:11:53;;;;;;;0.52;0.43;;;5.20;87.40;;;;;;10969958;32;20068;-73
2022/01/06 02:17:56;;;;;;;0.47;0.43;;;5.30;87.50;;;;;;10986070;32;20011;-73
2022/01/06 02:23:58;;;;;;;0.22;0.22;;;5.30;87.40;;;;;;10985815;32;20023;-72
2022/01/06 02:30:00;;;;;;;0.40;0.30;;;5.30;87.40;;;;;;10972267;32;20103;-72
2022/01/06 02:36:03;;;;;;;0.98;0.60;;;5.30;87.60;;;;;;10985357;32;20026;-72
2022/01/06 02:42:06;;;;;;;0.73;0.35;;;5.40;87.60;;;;;;10985131;32;20048;-72
2022/01/06 02:48:09;;;;;;;0.52;0.40;;;5.30;87.60;;;;;;10984857;32;20031;-72
2022/01/06 02:54:12;;;;;;;0.70;0.43;;;5.40;87.80;;;;;;10971418;32;20015;-72
2022/01/06 03:00:17;;;;;;;0.17;0.17;;;5.50;87.90;;;;;;10971208;32;20019;-72
2022/01/06 03:06:19;;;;;;;0.40;0.40;;;5.60;88.10;;;;;;10984250;32;20372;-72
2022/01/06 03:12:43;;;;;;;0.32;0.32;;;5.60;88.00;;;;;;10982881;32;20331;-72
2022/01/06 03:18:45;;;;;;;0.22;0.22;;;5.70;88.10;;;;;;10983699;32;20026;-72
2022/01/06 03:24:47;;;;;;;0.17;0.17;;;5.70;88.20;;;;;;10983399;32;20058;-72
2022/01/06 03:30:50;;;;;;;1.20;0.43;;;5.70;88.20;;;;;;10969862;32;20022;-72
2022/01/06 03:36:53;;;;;;;0.65;0.47;;;5.70;88.30;;;;;;10983106;32;20026;-72
2022/01/06 03:42:55;;;;;;;0.55;0.35;;;5.60;88.30;;;;;;10982852;32;20309;-72
2022/01/06 03:48:57;;;;;;;0.60;0.52;;;5.60;88.70;;;;;;10969318;32;20076;-72
2022/01/06 03:55:00;;;;;;;0.55;0.30;;;5.70;88.70;;;;;;10982476;32;20049;-72
2022/01/06 04:01:02;;;;;;;1.23;0.60;;;5.80;88.70;;;;;;10982346;32;20199;-72
2022/01/06 04:07:05;;;;;;;0.20;0.20;;;5.80;88.60;;;;;;10968663;32;20037;-72
2022/01/06 04:13:07;;;;;;;1.17;0.93;;;5.80;88.50;;;;;;10981823;32;20183;-72
2022/01/06 04:19:09;;;;;;;2.15;1.15;;;5.80;88.50;;;;;;10981699;32;20019;-72
2022/01/06 04:25:12;;;;;;;7.22;1.90;;;5.80;88.50;;;;;;10980598;32;20023;-72
2022/01/06 04:31:14;;;;;;;3.08;1.70;;;5.80;88.50;;;;;;10967843;32;20334;-72
2022/01/06 04:37:17;;;;;;;2.42;1.30;;;5.80;88.50;;;;;;10967600;32;20022;-72
2022/01/06 04:43:19;;;;;;;2.78;1.30;;;5.70;88.60;;;;;;10979986;32;20080;-72
2022/01/06 04:49:22;;;;;;;1.73;1.10;;;5.70;88.60;;;;;;10980501;32;20030;-72
2022/01/06 04:55:24;;;;;;;3.10;0.93;;;5.70;88.60;;;;;;10980517;32;20338;-72
2022/01/06 05:01:26;;;;;;;1.33;0.80;;;5.70;88.60;;;;;;10980188;32;20022;-72
2022/01/06 05:07:29;;;;;;;0.88;0.70;;;5.70;88.60;;;;;;10966477;32;20045;-72
2022/01/06 05:13:31;;;;;;;1.17;0.73;;;5.60;88.60;;;;;;10979863;32;20019;-72
2022/01/06 05:19:33;;;;;;;0.30;0.30;;;5.60;88.70;;;;;;10966062;32;20049;-72
2022/01/06 05:25:35;;;;;;;0.57;0.57;;;5.60;88.50;;;;;;10979372;32;20026;-72
2022/01/06 05:31:39;;;;;;;0.70;0.50;;;5.50;88.50;;;;;;10975842;32;20152;-72
2022/01/06 05:37:42;;;;;;;1.48;0.55;;;5.40;88.50;;;;;;10984155;32;20041;-72
2022/01/06 05:43:44;;;;;;;0.77;0.50;;;5.30;88.40;;;;;;10977911;32;20018;-72
2022/01/06 05:49:46;;;;;;;0.95;0.68;;;5.30;88.60;;;;;;10949287;32;20041;-72
2022/01/06 05:55:48;;;;;;;0.62;0.52;;;5.30;88.60;;;;;;10947674;32;20069;-72
2022/01/06 06:01:50;;;;;;;0.62;0.55;;;5.30;88.50;;;;;;10948889;32;20015;-72
2022/01/06 06:07:52;;;;;;;1.10;0.80;;;5.20;88.50;;;;;;10945769;32;20027;-72
2022/01/06 06:13:54;;;;;;;1.52;0.80;;;5.30;88.60;;;;;;10948305;32;20046;-72
2022/01/06 06:19:56;;;;;;;0.40;0.40;;;5.30;88.60;;;;;;10948221;32;20031;-72
2022/01/06 06:25:58;;;;;;;1.90;1.17;;;5.30;88.70;;;;;;10945975;32;20082;-72
2022/01/06 06:32:00;;;;;;;2.97;2.17;;;5.30;88.70;;;;;;10947829;32;20023;-72
2022/01/06 06:38:02;;;;;;;2.25;1.73;;;5.20;88.40;;;;;;10945211;32;20359;-72
2022/01/06 06:44:05;;;;;;;2.45;2.08;;;5.20;88.40;;;;;;10947345;32;20049;-72
2022/01/06 06:50:48;;;;;;;5.07;2.70;;;5.10;88.50;;;;;;10946968;32;20028;-72
2022/01/06 06:57:35;;;;;;;4.68;2.92;;;5.10;88.60;;;;;;10865138;32;20027;-71
2022/01/06 07:03:38;;;;;;;8.43;5.80;;;5.20;88.60;;;;;;10867333;32;20028;-71
2022/01/06 07:09:40;;;;;;;6.15;4.05;;;5.20;88.60;;;;;;10854896;32;20340;-72
2022/01/06 07:15:46;;;;;;;8.90;4.47;;;5.10;88.60;;;;;;10868089;32;20344;-71
2022/01/06 07:21:48;;;;;;;6.60;4.12;;;5.20;88.70;;;;;;10867769;32;20367;-71
2022/01/06 07:27:51;;;;;;;8.25;3.95;;;5.20;88.70;;;;;;10855235;32;20078;-71
2022/01/06 07:33:53;;;;;;;7.12;4.60;;;5.30;88.80;;;;;;10927083;32;20288;-71
2022/01/06 07:39:55;;;;;;;9.43;7.20;;;5.30;88.80;;;;;;10945974;32;20027;-72
2022/01/06 07:45:58;;;;;;;11.88;7.87;;;5.40;88.60;;;;;;10945114;32;20031;-72
2022/01/06 07:52:00;;;;;;;8.13;5.87;;;5.30;88.40;;;;;;10944989;32;20023;-71
2022/01/06 07:58:03;;;;;;;12.05;7.45;;;5.20;88.40;;;;;;10944243;32;20035;-71
2022/01/06 08:04:05;;;;;;;12.52;8.45;;;5.20;88.50;;;;;;10944706;32;20031;-71
2022/01/06 08:10:09;;;;;;;11.65;8.80;;;5.20;88.40;;;;;;10944423;32;20045;-72
2022/01/06 08:16:12;;;;;;;9.40;5.95;;;5.20;88.40;;;;;;10963650;32;20034;-72
2022/01/06 08:22:14;;;;;;;9.93;7.47;;;5.20;88.40;;;;;;10977798;32;20069;-72
2022/01/06 08:28:17;;;;;;;12.37;7.93;;;5.20;88.40;;;;;;10976931;32;20331;-72
2022/01/06 08:34:19;;;;;;;8.52;5.57;;;5.20;88.40;;;;;;10977400;32;20446;-72
2022/01/06 08:40:21;;;;;;;10.85;6.53;;;5.20;88.30;;;;;;10980678;32;20379;-72
2022/01/06 08:46:23;;;;;;;14.13;10.05;;;5.20;88.30;;;;;;10980778;32;20049;-70
2022/01/06 08:52:26;;;;;;;14.80;11.38;;;5.30;88.30;;;;;;10979456;32;20053;-70
2022/01/06 08:58:28;;;;;;;15.93;11.73;;;5.40;88.20;;;;;;10979299;32;20539;-70
2022/01/06 09:04:30;;;;;;;13.30;9.48;;;5.60;88.30;;;;;;10980300;32;20350;-70
2022/01/06 09:10:34;;;;;;;14.55;10.50;;;5.70;87.90;;;;;;10980044;32;20026;-70
2022/01/06 09:16:38;;;;;;;12.60;8.95;;;5.70;87.70;;;;;;10976465;32;20057;-70
2022/01/06 09:22:41;;;;;;;18.02;11.30;;;5.70;87.70;;;;;;10979600;32;20025;-70
2022/01/06 09:28:44;;;;;;;16.60;11.38;;;5.80;87.30;;;;;;10979554;32;20326;-70
2022/01/06 09:34:46;;;;;;;21.33;13.85;;;5.80;87.40;;;;;;10978022;32;20053;-70
2022/01/06 09:40:48;;;;;;;13.88;9.82;;;5.90;87.10;;;;;;10979144;32;20073;-70
2022/01/06 09:46:52;;;;;;;11.12;8.35;;;5.90;87.10;;;;;;10981887;27;20061;-70
2022/01/06 09:52:55;;;;;;;12.45;8.52;;;6.00;87.30;;;;;;10949433;32;20050;-69
2022/01/06 09:58:57;;;;;;;12.98;9.13;;;6.00;87.20;;;;;;10941286;32;20343;-69
2022/01/06 10:05:01;;;;;;;13.15;9.27;;;6.10;87.20;;;;;;10941179;32;20015;-69
2022/01/06 10:11:16;;;;;;;14.13;9.57;;;6.20;87.20;;;;;;10940793;32;20031;-69
2022/01/06 10:17:30;;;;;;;20.40;12.57;;;6.30;87.30;;;;;;10939407;32;20073;-71
2022/01/06 10:23:32;;;;;;;11.77;9.05;;;6.40;87.00;;;;;;10945058;32;20011;-70
2022/01/06 10:29:50;;;;;;;10.05;7.20;;;6.60;86.80;;;;;;10934434;32;20054;-70
2022/01/06 10:35:52;;;;;;;9.23;6.68;;;6.70;86.70;;;;;;10947751;32;20037;-70
2022/01/06 10:42:04;;;;;;;9.82;6.43;;;6.80;86.90;;;;;;10934027;32;20433;-71
2022/01/06 10:48:06;;;;;;;8.82;5.28;;;7.00;86.80;;;;;;10942999;32;20035;-70
2022/01/06 10:54:18;;;;;;;8.02;5.68;;;7.10;86.50;;;;;;10946904;32;20438;-70
2022/01/06 11:00:23;;;;;;;8.32;5.80;;;7.30;86.30;;;;;;10942370;32;20057;-70
2022/01/06 11:06:26;;;;;;;10.15;6.82;;;7.50;86.10;;;;;;10946731;32;20056;-70
2022/01/06 11:12:30;;;;;;;8.98;5.95;;;7.60;85.80;;;;;;10946331;32;20057;-70
2022/01/06 11:18:34;;;;;;;9.73;4.70;;;7.80;85.60;;;;;;10942034;32;20031;-70
2022/01/06 11:24:38;;;;;;;6.75;3.90;;;8.00;85.20;;;;;;10945553;32;20049;-70
2022/01/06 11:30:52;;;;;;;5.37;3.20;;;8.20;84.60;;;;;;10945802;32;20304;-70
2022/01/06 11:36:56;;;;;;;7.10;4.30;;;8.50;84.30;;;;;;10944662;32;20042;-70
2022/01/06 11:42:58;;;;;;;6.68;3.53;;;8.70;84.10;;;;;;10945396;32;20023;-70
2022/01/06 11:49:00;;;;;;;5.15;4.03;;;8.70;83.50;;;;;;10931717;32;20049;-70
2022/01/06 11:55:13;;;;;;;5.43;3.55;;;8.90;82.90;;;;;;10942179;32;20019;-70
2022/01/06 12:01:15;;;;;;;5.85;2.60;;;9.00;82.40;;;;;;10944938;32;20054;-70
2022/01/06 12:07:18;;;;;;;5.30;3.15;;;9.00;81.90;;;;;;10943953;32;20031;-70
2022/01/06 12:13:20;;;;;;;6.25;3.22;;;9.00;81.80;;;;;;10941662;32;20053;-70
2022/01/06 12:19:24;;;;;;;8.77;4.50;;;9.10;81.40;;;;;;10944158;32;20339;-74
2022/01/06 12:25:27;;;;;;;5.00;2.70;;;9.20;81.40;;;;;;10943805;32;20019;-70
2022/01/06 12:31:32;;;;;;;3.83;1.98;;;9.10;80.90;;;;;;10943505;32;20026;-70
2022/01/06 12:37:34;;;;;;;3.33;1.75;;;9.10;79.80;;;;;;10943357;32;20053;-70
2022/01/06 12:43:38;;;;;;;2.00;1.17;;;9.10;79.90;;;;;;10942817;32;20019;-70
2022/01/06 12:49:41;;;;;;;2.03;1.40;;;9.10;79.30;;;;;;10942803;32;20027;-70
2022/01/06 12:55:44;;;;;;;2.17;1.10;;;9.10;78.80;;;;;;10942001;32;20019;-70
2022/01/06 13:01:53;;;;;;;2.72;1.12;;;9.10;78.60;;;;;;10942471;32;20053;-70
2022/01/06 13:08:05;;;;;;;1.52;1.05;;;9.20;77.40;;;;;;10942521;32;20045;-70
2022/01/06 13:14:08;;;;;;;2.47;1.40;;;9.20;77.50;;;;;;10939079;32;20015;-70
2022/01/06 13:20:15;;;;;;;4.57;0.73;;;9.20;77.50;;;;;;10938632;32;20095;-69
2022/01/06 13:26:18;;;;;;;1.95;1.33;;;9.30;76.10;;;;;;10941957;32;20049;-69
2022/01/06 13:32:26;;;;;;;3.10;1.00;;;9.30;74.40;;;;;;10941796;32;20018;-69
2022/01/06 13:38:34;;;;;;;0.88;0.62;;;9.40;73.40;;;;;;10941177;32;20081;-69
2022/01/06 13:44:50;;;;;;;1.08;0.60;;;9.40;73.00;;;;;;10937494;32;20383;-69
2022/01/06 13:51:04;;;;;;;2.03;0.60;;;9.50;72.00;;;;;;10939608;32;20057;-69
2022/01/06 13:57:11;;;;;;;1.75;0.90;;;9.40;71.00;;;;;;10941522;32;20015;-69
2022/01/06 14:03:13;;;;;;;1.40;1.10;;;9.50;70.50;;;;;;10946140;32;20057;-69
2022/01/06 14:09:16;;;;;;;1.45;1.00;;;9.60;70.10;;;;;;10945707;32;20427;-69
2022/01/06 14:15:19;;;;;;;1.92;1.10;;;9.50;70.30;;;;;;10947850;32;20054;-73
2022/01/06 14:21:22;;;;;;;3.20;1.62;;;9.50;70.10;;;;;;10967782;32;20411;-72
2022/01/06 14:27:24;;;;;;;2.60;1.25;;;10.10;69.70;;;;;;10945726;32;20061;-73
2022/01/06 14:33:27;;;;;;;4.72;2.00;;;10.50;69.20;;;;;;10943294;32;20049;-73
2022/01/06 14:39:29;;;;;;;1.85;1.12;;;11.00;69.00;;;;;;10945223;32;20066;-73
2022/01/06 14:45:32;;;;;;;1.00;0.90;;;11.40;67.20;;;;;;10523198;32;12247445;-72
2022/01/06 14:51:34;;;;;;;1.30;0.70;;;11.30;68.10;;;;;;10856505;32;20369;-69
2022/01/06 14:57:36;;;;;;;1.45;0.80;;;10.70;69.50;;;;;;10868172;32;20031;-69
2022/01/06 15:03:39;;;;;;;2.53;1.33;;;10.20;70.80;;;;;;10868216;32;20070;-69
2022/01/06 15:09:42;;;;;;;3.03;2.22;;;9.80;71.70;;;;;;10891186;32;20355;-69
2022/01/06 15:15:44;;;;;;;4.45;1.62;;;9.60;72.30;;;;;;10945824;32;20038;-73
2022/01/06 15:21:47;;;;;;;3.58;1.70;;;9.50;72.80;;;;;;10945202;32;20027;-73
2022/01/06 15:27:49;;;;;;;1.77;1.10;;;9.30;73.50;;;;;;10945192;32;20059;-73
2022/01/06 15:33:51;;;;;;;1.95;0.90;;;9.00;74.00;;;;;;10930913;32;20042;-73
2022/01/06 15:39:53;;;;;;;1.73;1.08;;;8.70;74.80;;;;;;10944737;32;20031;-73
2022/01/06 15:45:56;;;;;;;2.22;1.35;;;8.40;75.40;;;;;;10944768;32;20027;-73
2022/01/06 15:51:58;;;;;;;3.78;1.25;;;8.20;75.90;;;;;;10942665;32;20049;-73
2022/01/06 15:58:00;;;;;;;4.07;2.33;;;8.00;76.40;;;;;;10940055;32;20018;-73
2022/01/06 16:10:23;;;;;;;5.43;1.70;;;7.70;77.20;;;;;;10944233;32;20057;-73
2022/01/06 16:16:25;;;;;;;5.62;3.15;;;7.50;77.60;;;;;;10943262;32;20359;-73
2022/01/06 16:22:28;;;;;;;4.00;2.25;;;7.40;78.00;;;;;;10942718;32;20045;-73
2022/01/06 16:28:30;;;;;;;3.70;2.20;;;7.30;78.30;;;;;;10943034;32;20049;-73
2022/01/06 16:34:33;;;;;;;4.20;2.47;;;7.20;78.60;;;;;;10942876;32;20030;-73
2022/01/06 16:40:35;;;;;;;4.22;2.58;;;7.10;78.90;;;;;;10943043;32;20053;-73
2022/01/06 16:46:37;;;;;;;7.78;4.68;;;7.00;79.10;;;;;;10942715;32;20031;-73
2022/01/06 16:52:39;;;;;;;4.53;2.55;;;6.90;79.30;;;;;;10942981;32;20473;-72
2022/01/06 16:58:42;;;;;;;3.40;2.25;;;6.90;79.50;;;;;;10927886;32;20045;-72
2022/01/06 17:04:44;;;;;;;3.20;2.10;;;6.80;79.70;;;;;;10942569;32;20339;-73
2022/01/06 17:10:46;;;;;;;4.65;2.50;;;6.70;79.90;;;;;;10940498;32;20031;-73
2022/01/06 17:16:48;;;;;;;2.85;1.90;;;6.70;80.10;;;;;;10941896;32;20355;-72
2022/01/06 17:22:51;;;;;;;3.97;1.95;;;6.60;80.30;;;;;;10942391;32;20019;-73
2022/01/06 17:28:54;;;;;;;3.87;2.12;;;6.50;80.40;;;;;;10942019;32;20396;-73
2022/01/06 17:34:56;;;;;;;3.83;2.20;;;6.50;80.60;;;;;;10941015;32;20031;-72
2022/01/06 17:40:58;;;;;;;3.67;2.08;;;6.40;80.70;;;;;;10941888;32;20020;-72
2022/01/06 17:47:03;;;;;;;3.53;2.12;;;6.30;80.90;;;;;;10977037;27;20354;-72
2022/01/06 17:53:05;;;;;;;5.18;2.33;;;6.20;81.00;;;;;;10979279;32;20348;-72
2022/01/06 17:59:07;;;;;;;3.78;2.12;;;6.20;81.20;;;;;;10963793;32;20316;-73
2022/01/06 18:05:14;;;;;;;7.15;2.33;;;6.10;81.20;;;;;;10979185;32;20050;-74
2022/01/06 18:11:20;;;;;;;3.40;2.03;;;6.10;81.40;;;;;;10978897;32;20037;-72
2022/01/06 18:17:22;;;;;;;3.30;2.33;;;6.00;81.40;;;;;;10978409;32;20421;-73
2022/01/06 18:23:25;;;;;;;7.90;5.30;;;6.00;81.50;;;;;;10978586;32;20011;-73
2022/01/06 18:29:27;;;;;;;5.57;3.78;;;6.00;81.60;;;;;;10978666;32;20050;-73
2022/01/06 18:35:30;;;;;;;6.62;4.37;;;5.90;81.70;;;;;;10976908;32;20188;-72
2022/01/06 18:41:33;;;;;;;5.30;3.20;;;5.80;81.80;;;;;;10979098;32;20194;-73
2022/01/06 18:47:35;;;;;;;10.70;6.22;;;5.70;81.90;;;;;;10982726;32;20018;-73
2022/01/06 18:54:05;;;;;;;6.82;4.12;;;5.70;82.00;;;;;;10947294;32;20023;-72
2022/01/06 19:00:09;;;;;;;8.68;6.05;;;5.70;82.10;;;;;;10947699;32;20019;-72
2022/01/06 19:06:11;;;;;;;7.82;5.40;;;5.60;82.10;;;;;;10942661;32;20019;-73
2022/01/06 19:12:17;;;;;;;12.52;9.63;;;5.60;82.20;;;;;;10946711;32;20020;-72
2022/01/06 19:18:21;;;;;;;14.05;9.45;;;5.50;82.30;;;;;;10945686;32;20050;-72
2022/01/06 19:24:23;;;;;;;11.27;7.85;;;5.50;82.30;;;;;;10946282;32;20332;-72
2022/01/06 19:30:25;;;;;;;13.70;10.30;;;5.50;82.30;;;;;;10943252;32;20404;-73
2022/01/06 19:36:33;;;;;;;11.90;7.65;;;5.40;82.40;;;;;;10944808;32;20015;-73
2022/01/06 19:43:02;;;;;;;15.77;10.55;;;5.40;82.60;;;;;;10945224;32;20031;-72
2022/01/06 19:49:05;;;;;;;11.30;8.57;;;5.40;83.00;;;;;;10941375;32;20045;-72
2022/01/06 19:55:17;;;;;;;26.40;16.35;;;5.30;83.30;;;;;;10944388;32;20137;-73
2022/01/06 20:01:19;;;;;;;18.35;14.18;;;5.30;83.30;;;;;;10945016;32;20408;-73
2022/01/06 20:07:21;;;;;;;22.13;18.60;;;5.20;83.00;;;;;;10944658;32;20441;-69
2022/01/06 20:13:23;;;;;;;14.18;9.88;;;5.20;83.00;;;;;;10944484;32;20192;-69
2022/01/06 20:19:25;;;;;;;17.27;11.82;;;5.20;83.10;;;;;;10944353;32;20023;-69
2022/01/06 20:25:29;;;;;;;19.55;14.20;;;5.10;83.10;;;;;;10944096;32;20031;-69
2022/01/06 20:31:31;;;;;;;16.58;12.60;;;5.10;83.10;;;;;;10943700;32;20049;-69
2022/01/06 20:37:35;;;;;;;14.23;10.40;;;5.10;83.10;;;;;;10943665;32;20035;-69
2022/01/06 20:43:38;;;;;;;21.83;16.08;;;4.90;83.20;;;;;;10942549;32;20042;-69
2022/01/06 20:56:03;;;;;;;18.40;13.30;;;4.90;83.10;;;;;;10939044;32;20057;-69
2022/01/06 21:02:09;;;;;;;15.55;11.52;;;4.90;83.10;;;;;;10938653;32;20395;-69
2022/01/06 21:08:14;;;;;;;19.05;14.30;;;4.80;83.20;;;;;;10941561;32;20042;-69
2022/01/06 21:14:17;;;;;;;24.67;18.55;;;4.70;83.20;;;;;;10942386;32;20053;-69
2022/01/06 21:20:20;;;;;;;27.08;19.77;;;4.70;83.20;;;;;;10941968;32;20049;-69
2022/01/06 21:26:24;;;;;;;33.10;23.65;;;4.70;83.30;;;;;;10941222;32;20053;-69
2022/01/06 21:32:40;;;;;;;24.00;18.08;;;4.70;83.20;;;;;;10940747;32;20034;-69
2022/01/06 21:38:42;;;;;;;26.02;19.17;;;4.70;83.40;;;;;;10938469;32;20054;-69
2022/01/06 21:44:51;;;;;;;25.10;18.75;;;4.60;83.70;;;;;;10941777;32;20418;-69
2022/01/06 21:50:52;;;;;;;31.95;24.70;;;4.60;83.90;;;;;;10941591;32;20031;-69
2022/01/06 21:56:55;;;;;;;35.92;26.00;;;4.50;84.10;;;;;;10940388;32;20027;-69
2022/01/06 22:02:58;;;;;;;35.42;23.67;;;4.30;84.30;;;;;;10941459;32;20048;-69
2022/01/06 22:09:01;;;;;;;30.00;21.60;;;4.20;84.40;;;;;;10941327;32;20085;-69
2022/01/06 22:15:04;;;;;;;25.45;18.27;;;4.20;84.60;;;;;;10941253;32;20061;-69
2022/01/06 22:21:06;;;;;;;24.85;15.90;;;4.20;84.60;;;;;;10947113;32;20053;-69
2022/01/06 22:27:08;;;;;;;25.60;17.83;;;4.20;84.80;;;;;;10948175;32;20053;-69
2022/01/06 22:33:14;;;;;;;26.33;21.98;;;4.20;84.90;;;;;;10948035;32;20093;-69
2022/01/06 22:39:16;;;;;;;19.83;15.65;;;4.20;84.80;;;;;;10948022;32;20031;-69
2022/01/06 22:45:19;;;;;;;24.15;16.12;;;4.20;84.80;;;;;;10947702;32;20324;-69
2022/01/06 22:51:22;;;;;;;24.80;17.00;;;4.20;85.00;;;;;;10947352;32;20057;-69
2022/01/06 22:57:24;;;;;;;16.95;12.25;;;4.20;84.90;;;;;;10947087;32;20057;-69
2022/01/06 23:03:27;;;;;;;20.40;15.30;;;4.20;85.00;;;;;;10947133;32;20046;-69
2022/01/06 23:09:30;;;;;;;20.50;15.52;;;4.10;85.20;;;;;;10944341;32;20081;-69
2022/01/06 23:15:32;;;;;;;18.73;14.40;;;4.20;85.10;;;;;;10946566;32;20072;-69
2022/01/06 23:21:35;;;;;;;15.60;11.75;;;4.10;85.30;;;;;;10945525;32;20400;-69
2022/01/06 23:27:38;;;;;;;20.95;14.00;;;4.10;85.40;;;;;;10946102;32;20054;-69
2022/01/06 23:33:40;;;;;;;16.50;13.75;;;4.10;85.30;;;;;;10945841;32;20077;-69
2022/01/06 23:39:43;;;;;;;21.80;16.27;;;4.10;85.30;;;;;;10945728;32;20293;-69
2022/01/06 23:45:46;;;;;;;25.12;14.43;;;4.10;85.20;;;;;;10945545;32;20011;-69
2022/01/06 23:51:49;;;;;;;16.08;11.63;;;4.10;85.30;;;;;;10945407;32;20336;-69
2022/01/06 23:57:55;;;;;;;16.77;11.82;;;4.10;85.40;;;;;;10945097;32;20437;-69
